createdAt,value
2023-11-09T00:01:16.376Z,7.45
2023-11-09T00:03:44.594Z,6.55
2023-11-09T00:06:13.210Z,7.00
2023-11-09T00:08:44.250Z,7.35
2023-11-09T00:11:13.079Z,7.75
2023-11-09T00:13:43.614Z,6.70
2023-11-09T00:16:14.799Z,7.68
2023-11-09T00:18:43.397Z,7.65
2023-11-09T00:21:11.612Z,7.45
2023-11-09T00:23:40.276Z,8.45
2023-11-09T00:26:10.012Z,7.65
2023-11-09T00:28:44.092Z,7.85
2023-11-09T00:31:12.339Z,7.28
2023-11-09T00:33:40.542Z,6.72
2023-11-09T00:36:09.459Z,6.97
2023-11-09T00:38:38.379Z,7.60
2023-11-09T00:41:07.348Z,7.70
2023-11-09T00:43:35.490Z,7.50
2023-11-09T00:46:05.317Z,7.50
2023-11-09T00:48:33.488Z,8.35
2023-11-09T00:51:01.678Z,7.97
2023-11-09T00:53:29.819Z,7.68
2023-11-09T00:55:58.049Z,8.15
2023-11-09T00:58:26.299Z,8.00
2023-11-09T01:00:54.584Z,6.95
2023-11-09T01:03:24.639Z,7.35
2023-11-09T01:05:54.261Z,7.13
2023-11-09T01:08:23.183Z,6.40
2023-11-09T01:10:51.437Z,6.50
2023-11-09T01:13:19.800Z,6.82
2023-11-09T01:15:48.099Z,7.50
2023-11-09T01:18:16.613Z,7.07
2023-11-09T01:20:46.375Z,7.45
2023-11-09T01:23:14.484Z,7.18
2023-11-09T01:25:42.692Z,7.70
2023-11-09T01:28:11.011Z,7.18
2023-11-09T01:30:39.367Z,7.55
2023-11-09T01:33:07.666Z,8.02
2023-11-09T01:35:35.987Z,8.15
2023-11-09T01:38:07.009Z,8.25
2023-11-09T01:40:35.468Z,7.45
2023-11-09T01:43:03.698Z,7.10
2023-11-09T01:45:31.980Z,8.23
2023-11-09T01:48:00.327Z,7.55
2023-11-09T01:50:28.654Z,7.90
2023-11-09T01:52:56.900Z,8.05
2023-11-09T01:55:28.362Z,7.10
2023-11-09T01:57:56.987Z,6.80
2023-11-09T02:00:25.246Z,7.53
2023-11-09T02:02:55.829Z,8.50
2023-11-09T02:05:24.894Z,6.80
2023-11-09T02:07:55.062Z,7.75
2023-11-09T02:10:24.014Z,7.47
2023-11-09T02:12:53.733Z,7.15
2023-11-09T02:15:22.046Z,7.40
2023-11-09T02:17:50.415Z,7.75
2023-11-09T02:20:18.795Z,8.57
2023-11-09T02:22:55.323Z,8.43
2023-11-09T02:25:25.921Z,7.97
2023-11-09T02:27:55.947Z,7.28
2023-11-09T02:30:24.410Z,8.23
2023-11-09T02:32:52.858Z,7.75
2023-11-09T02:35:21.739Z,8.35
2023-11-09T02:37:50.169Z,7.60
2023-11-09T02:40:19.806Z,8.57
2023-11-09T02:42:49.725Z,8.23
2023-11-09T02:45:18.680Z,8.13
2023-11-09T02:47:47.091Z,7.82
2023-11-09T02:50:16.014Z,8.75
2023-11-09T02:52:44.333Z,8.80
2023-11-09T02:55:12.518Z,8.50
2023-11-09T02:57:40.943Z,8.32
2023-11-09T03:00:11.914Z,7.68
2023-11-09T03:02:40.732Z,7.82
2023-11-09T03:05:09.472Z,8.20
2023-11-09T03:07:37.802Z,9.77
2023-11-09T03:10:06.994Z,8.85
2023-11-09T03:12:35.152Z,9.02
2023-11-09T03:15:04.517Z,7.88
2023-11-09T03:17:34.068Z,8.05
2023-11-09T03:20:02.817Z,9.20
2023-11-09T03:22:31.431Z,10.45
2023-11-09T03:24:59.824Z,9.75
2023-11-09T03:27:28.001Z,9.98
2023-11-09T03:29:56.162Z,8.48
2023-11-09T03:32:24.383Z,10.48
2023-11-09T03:34:54.027Z,9.77
2023-11-09T03:37:22.278Z,10.43
2023-11-09T03:39:54.486Z,10.32
2023-11-09T03:42:24.608Z,10.50
2023-11-09T03:44:52.852Z,10.07
2023-11-09T03:47:21.067Z,11.63
2023-11-09T03:49:49.186Z,13.23
2023-11-09T03:52:18.917Z,11.02
2023-11-09T03:54:47.114Z,11.20
2023-11-09T03:57:15.441Z,11.40
2023-11-09T03:59:43.586Z,11.48
2023-11-09T04:02:11.840Z,11.00
2023-11-09T04:04:40.083Z,12.13
2023-11-09T04:07:08.909Z,12.65
2023-11-09T04:09:38.524Z,12.23
2023-11-09T04:12:07.725Z,12.80
2023-11-09T04:14:35.832Z,12.00
2023-11-09T04:17:03.997Z,10.88
2023-11-09T04:19:32.201Z,11.30
2023-11-09T04:22:00.572Z,10.95
2023-11-09T04:24:29.016Z,13.10
2023-11-09T04:26:59.511Z,12.05
2023-11-09T04:29:27.941Z,12.45
2023-11-09T04:31:56.798Z,12.02
2023-11-09T04:34:27.203Z,10.82
2023-11-09T04:36:58.635Z,12.70
2023-11-09T04:39:31.026Z,14.32
2023-11-09T04:42:05.526Z,14.20
2023-11-09T04:44:33.807Z,13.35
2023-11-09T04:47:09.837Z,14.00
2023-11-09T04:49:38.973Z,13.43
2023-11-09T04:52:07.718Z,13.68
2023-11-09T04:54:46.500Z,12.38
2023-11-09T04:57:33.739Z,15.48
2023-11-09T05:00:19.204Z,14.88
2023-11-09T05:03:04.813Z,13.77
2023-11-09T05:05:50.308Z,15.45
2023-11-09T05:08:18.913Z,15.20
2023-11-09T05:10:47.872Z,15.35
2023-11-09T05:13:17.877Z,16.23
2023-11-09T05:15:46.616Z,14.68
2023-11-09T05:18:16.807Z,14.88
2023-11-09T05:20:45.084Z,23.95
2023-11-09T05:23:13.205Z,15.15
2023-11-09T05:25:42.828Z,13.52
2023-11-09T05:28:11.275Z,17.45
2023-11-09T05:30:40.922Z,15.30
2023-11-09T05:33:09.400Z,15.20
2023-11-09T05:35:37.797Z,16.10
2023-11-09T05:38:06.278Z,18.55
2023-11-09T05:40:34.661Z,16.45
2023-11-09T05:43:03.140Z,20.08
2023-11-09T05:45:32.052Z,16.42
2023-11-09T05:48:01.782Z,16.90
2023-11-09T05:50:32.483Z,16.38
2023-11-09T05:53:01.623Z,17.77
2023-11-09T05:55:31.456Z,16.45
2023-11-09T05:58:00.431Z,21.42
2023-11-09T06:00:29.590Z,17.30
2023-11-09T06:02:59.467Z,16.60
2023-11-09T06:05:29.355Z,21.52
2023-11-09T06:07:58.314Z,17.75
2023-11-09T06:10:27.333Z,22.60
2023-11-09T06:12:55.649Z,16.70
2023-11-09T06:15:24.053Z,16.08
2023-11-09T06:17:53.491Z,16.70
2023-11-09T06:20:22.397Z,15.30
2023-11-09T06:22:54.275Z,15.57
2023-11-09T06:25:22.601Z,12.40
2023-11-09T06:27:51.163Z,15.48
2023-11-09T06:30:20.055Z,12.77
2023-11-09T06:32:49.771Z,12.73
2023-11-09T06:35:19.767Z,13.95
2023-11-09T06:37:48.291Z,11.85
2023-11-09T06:40:18.927Z,14.13
2023-11-09T06:42:51.171Z,13.15
2023-11-09T06:45:20.006Z,11.88
2023-11-09T06:47:49.600Z,11.05
2023-11-09T06:50:20.440Z,11.38
2023-11-09T06:52:49.458Z,12.65
2023-11-09T06:55:19.190Z,11.05
2023-11-09T06:57:48.894Z,12.50
2023-11-09T07:00:18.309Z,13.80
2023-11-09T07:02:48.480Z,11.90
2023-11-09T07:05:16.997Z,18.23
2023-11-09T07:07:45.318Z,11.48
2023-11-09T07:10:17.037Z,13.13
2023-11-09T07:12:46.978Z,10.80
2023-11-09T07:15:15.948Z,16.80
2023-11-09T07:17:44.639Z,11.45
2023-11-09T07:20:13.570Z,11.80
2023-11-09T07:22:41.896Z,11.23
2023-11-09T07:25:14.040Z,12.07
2023-11-09T07:27:42.736Z,12.23
2023-11-09T07:30:13.171Z,13.57
2023-11-09T07:32:41.530Z,13.05
2023-11-09T07:35:10.818Z,14.70
2023-11-09T07:37:40.042Z,15.15
2023-11-09T07:40:11.618Z,15.73
2023-11-09T07:42:40.147Z,16.48
2023-11-09T07:45:11.478Z,14.70
2023-11-09T07:47:41.172Z,13.35
2023-11-09T07:50:10.954Z,14.40
2023-11-09T07:52:39.827Z,12.70
2023-11-09T07:55:08.894Z,14.13
2023-11-09T07:57:37.311Z,13.50
2023-11-09T08:00:11.888Z,12.93
2023-11-09T08:02:42.739Z,12.70
2023-11-09T08:05:14.795Z,14.60
2023-11-09T08:07:43.801Z,13.33
2023-11-09T08:10:12.312Z,11.97
2023-11-09T08:12:43.085Z,12.80
2023-11-09T08:15:13.083Z,13.55
2023-11-09T08:17:44.003Z,13.00
2023-11-09T08:20:16.636Z,14.03
2023-11-09T08:22:46.849Z,13.70
2023-11-09T08:25:16.405Z,12.33
2023-11-09T08:27:45.717Z,11.97
2023-11-09T08:30:17.017Z,11.40
2023-11-09T08:32:49.319Z,11.70
2023-11-09T08:35:19.407Z,11.23
2023-11-09T08:37:48.267Z,11.33
2023-11-09T08:40:19.116Z,9.90
2023-11-09T08:42:49.864Z,10.27
2023-11-09T08:45:19.473Z,11.80
2023-11-09T08:47:51.024Z,11.30
2023-11-09T08:50:22.033Z,11.03
2023-11-09T08:52:50.944Z,9.67
2023-11-09T08:55:19.804Z,10.90
2023-11-09T08:57:48.604Z,9.53
2023-11-09T09:00:17.936Z,8.20
2023-11-09T09:02:50.564Z,10.00
2023-11-09T09:05:22.002Z,8.80
2023-11-09T09:07:53.269Z,12.20
2023-11-09T09:10:29.557Z,8.00
2023-11-09T09:13:00.690Z,7.80
2023-11-09T09:15:30.554Z,7.57
2023-11-09T09:18:00.377Z,6.90
2023-11-09T09:20:31.221Z,5.87
2023-11-09T09:23:01.469Z,6.73
2023-11-09T09:25:31.612Z,5.67
2023-11-09T09:28:02.829Z,5.10
2023-11-09T09:30:31.291Z,5.23
2023-11-09T09:33:00.544Z,5.90
2023-11-09T09:35:39.051Z,4.63
2023-11-09T09:38:16.773Z,4.37
2023-11-09T09:40:50.616Z,4.00
2023-11-09T09:43:21.166Z,8.37
2023-11-09T09:45:59.533Z,4.80
2023-11-09T09:48:31.959Z,4.30
2023-11-09T09:51:06.315Z,3.90
2023-11-09T09:53:35.742Z,4.10
2023-11-09T09:56:05.210Z,4.10
2023-11-09T09:58:33.815Z,3.77
2023-11-09T10:01:05.137Z,6.50
2023-11-09T10:03:35.646Z,3.93
2023-11-09T10:06:07.552Z,4.57
2023-11-09T10:08:37.280Z,3.80
2023-11-09T10:11:06.512Z,4.30
2023-11-09T10:13:36.703Z,4.93
2023-11-09T10:16:05.587Z,4.20
2023-11-09T10:18:35.337Z,5.20
2023-11-09T10:21:08.218Z,3.80
2023-11-09T10:23:36.974Z,3.60
2023-11-09T10:26:05.490Z,3.93
2023-11-09T10:28:37.956Z,3.77
2023-11-09T10:31:06.623Z,3.30
2023-11-09T10:33:37.242Z,3.67
2023-11-09T10:36:07.542Z,3.10
2023-11-09T10:38:37.662Z,3.50
2023-11-09T10:41:51.285Z,3.50
2023-11-09T10:44:03.018Z,4.67
2023-11-09T10:46:35.776Z,3.43
2023-11-09T10:49:05.174Z,3.17
2023-11-09T10:51:36.825Z,6.70
2023-11-09T10:54:08.500Z,3.77
2023-11-09T10:56:37.989Z,5.20
2023-11-09T10:59:06.899Z,3.70
2023-11-09T11:01:38.425Z,5.43
2023-11-09T11:04:10.700Z,3.30
2023-11-09T11:06:52.243Z,3.73
2023-11-09T11:09:27.487Z,3.20
2023-11-09T11:12:00.270Z,3.27
2023-11-09T11:14:30.740Z,2.90
2023-11-09T11:17:16.502Z,3.00
2023-11-09T11:20:02.349Z,3.10
2023-11-09T11:22:50.365Z,3.90
2023-11-09T11:25:31.954Z,3.50
2023-11-09T11:28:01.680Z,5.70
2023-11-09T11:30:33.818Z,3.83
2023-11-09T11:33:05.802Z,4.80
2023-11-09T11:35:40.437Z,4.30
2023-11-09T11:38:24.654Z,4.67
2023-11-09T11:40:55.664Z,4.57
2023-11-09T11:43:24.006Z,4.07
2023-11-09T11:45:55.033Z,3.27
2023-11-09T11:48:32.050Z,3.97
2023-11-09T11:51:00.744Z,3.97
2023-11-09T11:53:33.062Z,6.57
2023-11-09T11:56:05.575Z,4.80
2023-11-09T11:58:49.042Z,4.30
2023-11-09T12:01:32.396Z,3.87
2023-11-09T12:04:05.687Z,6.27
2023-11-09T12:06:37.758Z,4.93
2023-11-09T12:09:11.709Z,5.63
2023-11-09T12:11:46.496Z,6.60
2023-11-09T12:14:17.698Z,6.80
2023-11-09T12:16:46.212Z,8.03
2023-11-09T12:19:16.417Z,6.70
2023-11-09T12:21:47.450Z,6.67
2023-11-09T12:24:24.426Z,6.50
2023-11-09T12:27:05.223Z,6.40
2023-11-09T12:29:34.977Z,5.60
2023-11-09T12:32:03.273Z,5.33
2023-11-09T12:34:36.587Z,6.23
2023-11-09T12:37:12.241Z,6.23
2023-11-09T12:39:44.134Z,5.30
2023-11-09T12:42:14.891Z,6.00
2023-11-09T12:44:44.577Z,6.70
2023-11-09T12:47:19.764Z,7.53
2023-11-09T12:49:49.432Z,7.87
2023-11-09T12:52:19.549Z,6.40
2023-11-09T12:54:49.923Z,6.80
2023-11-09T12:57:19.557Z,6.50
2023-11-09T12:59:49.737Z,6.13
2023-11-09T13:02:20.357Z,7.23
2023-11-09T13:04:53.782Z,8.63
2023-11-09T13:07:26.372Z,7.17
2023-11-09T13:10:10.073Z,8.03
2023-11-09T13:12:41.329Z,7.20
2023-11-09T13:15:15.493Z,6.90
2023-11-09T13:17:52.009Z,7.47
2023-11-09T13:20:30.733Z,9.37
2023-11-09T13:23:08.427Z,6.83
2023-11-09T13:25:41.536Z,7.13
2023-11-09T13:28:16.054Z,7.47
2023-11-09T13:30:58.437Z,7.20
2023-11-09T13:33:36.785Z,7.03
2023-11-09T13:36:10.482Z,7.77
2023-11-09T13:38:45.418Z,6.33
2023-11-09T13:41:18.767Z,5.30
2023-11-09T13:44:01.496Z,6.47
2023-11-09T13:46:39.660Z,6.83
2023-11-09T13:49:29.004Z,6.87
2023-11-09T13:52:18.318Z,7.03
2023-11-09T13:54:49.647Z,5.70
2023-11-09T13:57:20.295Z,7.17
2023-11-09T13:59:56.973Z,7.50
2023-11-09T14:02:30.996Z,7.73
2023-11-09T14:05:08.926Z,6.90
2023-11-09T14:07:43.337Z,6.67
2023-11-09T14:10:15.715Z,5.80
2023-11-09T14:12:52.724Z,6.43
2023-11-09T14:15:27.763Z,8.00
2023-11-09T14:17:58.519Z,7.07
2023-11-09T14:20:35.797Z,6.17
2023-11-09T14:23:07.275Z,6.40
2023-11-09T14:25:38.280Z,5.43
2023-11-09T14:28:07.923Z,6.70
2023-11-09T14:30:36.237Z,8.60
2023-11-09T14:33:08.919Z,7.37
2023-11-09T14:35:43.279Z,8.07
2023-11-09T14:38:13.136Z,7.47
2023-11-09T14:40:48.480Z,6.17
2023-11-09T14:43:19.668Z,6.70
2023-11-09T14:45:50.296Z,6.97
2023-11-09T14:48:23.667Z,9.40
2023-11-09T14:50:55.135Z,10.30
2023-11-09T14:53:33.773Z,20.60
2023-11-09T14:56:08.493Z,8.33
2023-11-09T14:58:38.145Z,9.30
2023-11-09T15:01:06.639Z,8.83
2023-11-09T15:03:35.991Z,9.53
2023-11-09T15:06:15.916Z,9.90
2023-11-09T15:08:44.142Z,18.33
2023-11-09T15:11:15.240Z,16.07
2023-11-09T15:13:48.152Z,10.50
2023-11-09T15:16:21.058Z,16.30
2023-11-09T15:18:52.969Z,13.53
2023-11-09T15:21:23.401Z,24.13
2023-11-09T15:23:52.101Z,16.17
2023-11-09T15:26:20.713Z,32.83
2023-11-09T15:28:50.514Z,16.40
2023-11-09T15:31:19.098Z,13.70
2023-11-09T15:33:47.623Z,14.60
2023-11-09T15:36:15.991Z,14.93
2023-11-09T15:38:46.463Z,15.07
2023-11-09T15:41:21.946Z,10.60
2023-11-09T15:43:55.230Z,11.47
2023-11-09T15:46:24.318Z,11.73
2023-11-09T15:48:54.737Z,10.65
2023-11-09T15:51:32.546Z,15.40
2023-11-09T15:54:01.103Z,12.32
2023-11-09T15:56:30.403Z,11.68
2023-11-09T15:59:00.862Z,12.80
2023-11-09T16:01:29.244Z,15.23
2023-11-09T16:03:57.966Z,19.20
2023-11-09T16:06:26.171Z,15.80
2023-11-09T16:08:54.374Z,27.17
2023-11-09T16:11:22.850Z,21.95
2023-11-09T16:13:54.928Z,18.95
2023-11-09T16:16:28.497Z,21.50
2023-11-09T16:18:58.186Z,14.35
2023-11-09T16:21:26.523Z,18.73
2023-11-09T16:23:55.013Z,16.27
2023-11-09T16:26:29.503Z,23.42
2023-11-09T16:29:01.925Z,18.98
2023-11-09T16:31:31.855Z,24.70
2023-11-09T16:34:00.120Z,22.70
2023-11-09T16:36:30.101Z,32.22
2023-11-09T16:38:59.414Z,32.30
2023-11-09T16:41:27.860Z,33.28
2023-11-09T16:43:56.211Z,26.60
2023-11-09T16:46:25.081Z,101.85
2023-11-09T16:48:55.498Z,84.75
2023-11-09T16:51:24.246Z,42.10
2023-11-09T16:53:52.500Z,29.65
2023-11-09T16:56:22.213Z,24.48
2023-11-09T16:58:49.613Z,24.73
2023-11-09T17:01:19.674Z,23.92
2023-11-09T17:03:48.308Z,23.85
2023-11-09T17:06:18.948Z,28.10
2023-11-09T17:08:47.617Z,19.05
2023-11-09T17:11:16.749Z,22.73
2023-11-09T17:13:44.996Z,23.13
2023-11-09T17:16:13.223Z,26.30
2023-11-09T17:18:41.658Z,25.70
2023-11-09T17:21:10.296Z,30.13
2023-11-09T17:23:39.918Z,28.23
2023-11-09T17:26:08.149Z,25.80
2023-11-09T17:28:36.637Z,26.98
2023-11-09T17:31:05.176Z,33.45
2023-11-09T17:33:33.888Z,32.50
2023-11-09T17:36:02.269Z,29.77
2023-11-09T17:38:49.708Z,30.55
2023-11-09T17:41:18.540Z,29.55
2023-11-09T17:43:47.269Z,30.58
2023-11-09T17:46:16.142Z,37.50
2023-11-09T17:48:44.993Z,34.92
2023-11-09T17:51:14.179Z,38.22
2023-11-09T17:53:42.387Z,31.40
2023-11-09T17:56:12.605Z,27.50
2023-11-09T17:58:43.239Z,27.73
2023-11-09T18:01:12.471Z,22.17
2023-11-09T18:03:40.881Z,24.55
2023-11-09T18:06:13.032Z,29.75
2023-11-09T18:08:41.395Z,22.52
2023-11-09T18:11:10.952Z,28.23
2023-11-09T18:13:39.168Z,24.27
2023-11-09T18:16:08.594Z,24.17
2023-11-09T18:18:36.824Z,27.65
2023-11-09T18:21:05.444Z,20.90
2023-11-09T18:23:33.726Z,26.15
2023-11-09T18:26:03.079Z,23.42
2023-11-09T18:28:32.818Z,21.60
2023-11-09T18:31:01.175Z,29.55
2023-11-09T18:33:29.641Z,20.15
2023-11-09T18:35:58.188Z,19.88
2023-11-09T18:38:26.553Z,19.33
2023-11-09T18:40:55.127Z,17.73
2023-11-09T18:43:23.466Z,21.40
2023-11-09T18:45:53.305Z,17.70
2023-11-09T18:48:21.571Z,16.38
2023-11-09T18:53:21.819Z,19.23
2023-11-09T18:55:50.032Z,22.20
2023-11-09T18:58:18.288Z,19.77
2023-11-09T19:00:46.548Z,18.60
2023-11-09T19:05:47.673Z,17.65
2023-11-09T19:08:20.943Z,19.33
2023-11-09T19:10:50.617Z,24.85
2023-11-09T19:13:20.885Z,20.10
2023-11-09T19:15:49.368Z,22.98
2023-11-09T19:18:19.361Z,26.08
2023-11-09T19:23:25.749Z,24.17
2023-11-09T19:25:55.465Z,19.75
2023-11-09T19:28:30.380Z,20.33
2023-11-09T19:31:02.301Z,22.20
2023-11-09T19:33:37.304Z,22.45
2023-11-09T19:36:07.080Z,24.23
2023-11-09T19:38:35.751Z,23.02
2023-11-09T19:41:04.772Z,22.58
2023-11-09T19:43:32.907Z,25.63
2023-11-09T19:46:01.093Z,22.45
2023-11-09T19:48:29.405Z,17.60
2023-11-09T19:50:59.304Z,14.55
2023-11-09T19:53:27.502Z,20.33
2023-11-09T19:55:55.735Z,16.13
2023-11-09T19:58:23.933Z,14.75
2023-11-09T20:00:52.401Z,16.88
2023-11-09T20:03:21.052Z,16.30
2023-11-09T20:05:49.403Z,17.27
2023-11-09T20:08:18.076Z,18.13
2023-11-09T20:10:46.429Z,15.15
2023-11-09T20:13:15.209Z,15.57
2023-11-09T20:15:43.923Z,19.92
2023-11-09T20:18:14.852Z,17.75
2023-11-09T20:20:44.452Z,15.07
2023-11-09T20:23:15.761Z,28.63
2023-11-09T20:25:45.570Z,28.23
2023-11-09T20:28:15.633Z,25.67
2023-11-09T20:30:44.648Z,28.10
2023-11-09T20:33:13.162Z,43.58
2023-11-09T20:35:42.303Z,36.33
2023-11-09T20:38:12.948Z,34.33
2023-11-09T20:40:41.181Z,32.65
2023-11-09T20:43:11.037Z,28.05
2023-11-09T20:45:39.642Z,31.48
2023-11-09T20:48:10.624Z,24.60
2023-11-09T20:50:39.529Z,23.85
2023-11-09T20:53:07.863Z,24.02
2023-11-09T20:55:36.903Z,26.63
2023-11-09T20:58:05.969Z,24.73
2023-11-09T21:00:36.265Z,21.67
2023-11-09T21:03:05.679Z,19.98
2023-11-09T21:05:35.983Z,20.95
2023-11-09T21:08:04.330Z,23.75
2023-11-09T21:10:33.351Z,23.00
2023-11-09T21:13:02.037Z,20.55
2023-11-09T21:15:30.642Z,18.75
2023-11-09T21:18:00.615Z,20.23
2023-11-09T21:20:29.347Z,103.50
2023-11-09T21:22:58.909Z,52.45
2023-11-09T21:25:27.484Z,56.00
2023-11-09T21:27:55.914Z,84.10
2023-11-09T21:30:24.118Z,61.03
2023-11-09T21:32:52.376Z,58.67
2023-11-09T21:35:22.207Z,57.45
2023-11-09T21:37:50.468Z,43.17
2023-11-09T21:40:19.652Z,45.47
2023-11-09T21:42:48.587Z,45.00
2023-11-09T21:45:18.615Z,45.95
2023-11-09T21:47:47.486Z,50.00
2023-11-09T21:50:16.082Z,44.63
2023-11-09T21:52:49.169Z,43.42
2023-11-09T21:55:20.833Z,63.80
2023-11-09T21:57:49.193Z,56.40
2023-11-09T22:00:19.269Z,61.85
2023-11-09T22:03:06.891Z,50.88
2023-11-09T22:05:35.266Z,48.63
2023-11-09T22:08:06.056Z,40.75
2023-11-09T22:10:34.878Z,40.53
2023-11-09T22:13:05.395Z,34.25
2023-11-09T22:15:33.833Z,38.00
2023-11-09T22:18:03.315Z,41.22
2023-11-09T22:20:31.944Z,32.22
2023-11-09T22:23:00.099Z,41.78
2023-11-09T22:25:30.255Z,38.38
2023-11-09T22:27:58.493Z,35.03
2023-11-09T22:30:26.737Z,33.15
2023-11-09T22:32:55.120Z,36.85
2023-11-09T22:35:23.436Z,37.67
2023-11-09T22:37:51.730Z,36.80
2023-11-09T22:40:19.992Z,49.75
2023-11-09T22:42:49.916Z,43.10
2023-11-09T22:45:19.271Z,55.47
2023-11-09T22:47:47.552Z,48.08
2023-11-09T22:50:15.923Z,39.83
2023-11-09T22:52:44.134Z,43.10
2023-11-09T22:55:13.567Z,45.05
2023-11-09T22:57:42.905Z,45.25
2023-11-09T23:00:25.411Z,52.42
2023-11-09T23:02:55.131Z,39.55
2023-11-09T23:05:23.596Z,39.63
2023-11-09T23:07:52.109Z,38.60
2023-11-09T23:10:20.421Z,37.20
2023-11-09T23:12:48.825Z,47.38
2023-11-09T23:15:18.414Z,46.65
2023-11-09T23:17:47.514Z,41.05
2023-11-09T23:20:16.363Z,39.15
2023-11-09T23:22:45.574Z,34.97
2023-11-09T23:25:14.288Z,49.03
2023-11-09T23:27:42.578Z,44.30
2023-11-09T23:30:13.766Z,54.60
2023-11-09T23:32:44.101Z,45.45
2023-11-09T23:35:12.303Z,39.28
2023-11-09T23:37:40.554Z,45.72
2023-11-09T23:40:12.232Z,40.47
2023-11-09T23:42:40.559Z,38.58
2023-11-09T23:45:10.157Z,36.13
2023-11-09T23:47:39.178Z,34.10
2023-11-09T23:52:55.251Z,33.55
2023-11-09T23:55:23.469Z,44.47
2023-11-09T23:57:51.981Z,40.28
